Time;durP1;ratioP1;P1;durP2;ratioP2;P2;SDS_P1;SDS_P2;PMS_P1;PMS_P2;Temp;Humidity;BMP_temperature;BMP_pressure;BME280_temperature;BME280_humidity;BME280_pressure;Samples;Min_cycle;Max_cycle;Signal;HPM_P1;HPM_P2
2021/06/15 00:01:48;;;;;;;10.77;6.15;;;15.90;36.50;;;;;;4901893;29;20039;-89
2021/06/15 00:04:14;;;;;;;11.85;5.93;;;15.80;36.60;;;;;;4917970;29;20028;-89
2021/06/15 00:06:40;;;;;;;12.40;6.57;;;15.70;36.80;;;;;;4918408;29;20040;-87
2021/06/15 00:09:05;;;;;;;10.35;5.40;;;15.70;36.80;;;;;;4901686;29;20024;-86
2021/06/15 00:11:31;;;;;;;11.30;5.40;;;15.70;37.10;;;;;;4917537;29;20028;-86
2021/06/15 00:13:56;;;;;;;11.15;5.22;;;15.70;37.10;;;;;;4918516;29;20039;-86
2021/06/15 00:16:22;;;;;;;10.35;5.97;;;15.60;37.20;;;;;;4917197;29;20052;-86
2021/06/15 00:18:48;;;;;;;9.85;5.55;;;15.60;37.30;;;;;;4901798;29;20512;-86
2021/06/15 00:21:13;;;;;;;11.27;6.15;;;15.50;37.40;;;;;;4901567;29;20035;-86
2021/06/15 00:23:39;;;;;;;10.15;5.57;;;15.50;37.60;;;;;;4917258;29;20060;-86
2021/06/15 00:26:05;;;;;;;11.68;6.15;;;15.50;38.00;;;;;;4901376;29;20393;-86
2021/06/15 00:28:30;;;;;;;10.70;6.10;;;15.40;38.00;;;;;;4901223;29;20060;-87
2021/06/15 00:30:56;;;;;;;9.13;5.70;;;15.40;38.00;;;;;;4901948;29;20477;-87
2021/06/15 00:33:21;;;;;;;10.25;6.38;;;15.30;38.30;;;;;;4917456;29;20071;-87
2021/06/15 00:35:47;;;;;;;9.82;6.32;;;15.30;38.30;;;;;;4901781;29;20034;-87
2021/06/15 00:38:13;;;;;;;11.43;6.32;;;15.30;38.50;;;;;;4901708;29;20122;-86
2021/06/15 00:40:39;;;;;;;10.65;6.45;;;15.20;38.70;;;;;;4901094;29;20044;-86
2021/06/15 00:43:04;;;;;;;10.93;6.25;;;15.20;38.80;;;;;;4918274;29;20098;-86
2021/06/15 00:45:33;;;;;;;10.60;5.50;;;15.10;38.90;;;;;;4918225;29;20107;-86
2021/06/15 00:47:59;;;;;;;10.63;5.88;;;15.10;38.90;;;;;;4917915;29;20016;-85
2021/06/15 00:50:26;;;;;;;9.55;5.30;;;15.00;39.10;;;;;;4901120;29;20084;-86
2021/06/15 00:52:53;;;;;;;10.88;6.35;;;15.00;39.30;;;;;;4917677;29;20067;-87
2021/06/15 00:55:21;;;;;;;9.93;5.85;;;15.00;39.40;;;;;;4900955;29;20028;-87
2021/06/15 00:57:47;;;;;;;10.32;5.97;;;14.90;39.40;;;;;;4916446;29;20408;-87
2021/06/15 01:00:13;;;;;;;11.65;6.22;;;14.90;39.50;;;;;;4901051;29;20028;-86
2021/06/15 01:02:39;;;;;;;10.85;6.55;;;14.80;39.60;;;;;;4900917;29;20039;-87
2021/06/15 01:05:08;;;;;;;11.77;6.85;;;14.80;39.80;;;;;;4917347;29;20020;-88
2021/06/15 01:07:49;;;;;;;10.88;6.13;;;14.70;40.10;;;;;;4916964;29;20032;-87
2021/06/15 01:10:37;;;;;;;12.02;6.40;;;14.70;40.20;;;;;;4914647;29;20369;-87
2021/06/15 01:13:35;;;;;;;10.65;5.93;;;14.70;40.20;;;;;;4914935;29;20036;-87
2021/06/15 01:16:04;;;;;;;11.98;6.75;;;14.60;40.30;;;;;;4916172;29;20114;-87
2021/06/15 01:18:34;;;;;;;10.88;6.38;;;14.50;40.50;;;;;;4917232;29;20536;-87
2021/06/15 01:21:04;;;;;;;10.95;6.90;;;14.50;40.50;;;;;;4917053;29;20027;-88
2021/06/15 01:23:41;;;;;;;10.98;5.93;;;14.40;40.60;;;;;;4917245;29;20464;-88
2021/06/15 01:26:34;;;;;;;12.85;6.43;;;14.50;41.00;;;;;;4900396;29;20031;-87
2021/06/15 01:29:14;;;;;;;11.52;6.95;;;14.40;41.00;;;;;;4916738;29;20027;-87
2021/06/15 01:31:42;;;;;;;11.10;6.35;;;14.30;41.10;;;;;;4899954;29;20055;-87
2021/06/15 01:34:14;;;;;;;10.98;6.60;;;14.30;41.10;;;;;;4912450;29;20020;-87
2021/06/15 01:36:56;;;;;;;11.55;6.78;;;14.30;41.30;;;;;;4900640;29;20480;-89
2021/06/15 01:39:27;;;;;;;11.57;6.38;;;14.20;41.50;;;;;;4899937;29;20071;-89
2021/06/15 01:42:03;;;;;;;11.45;6.40;;;14.20;41.50;;;;;;4917125;29;20024;-88
2021/06/15 01:44:32;;;;;;;9.90;6.53;;;14.20;41.40;;;;;;4917141;29;20028;-89
2021/06/15 01:47:06;;;;;;;10.63;6.20;;;14.20;41.70;;;;;;4899876;29;20024;-88
2021/06/15 01:49:51;;;;;;;10.88;6.32;;;14.10;41.90;;;;;;4900151;29;20497;-89
2021/06/15 01:52:17;;;;;;;11.95;6.47;;;14.10;42.00;;;;;;4896492;29;20425;-86
2021/06/15 01:54:45;;;;;;;12.38;6.93;;;14.10;41.80;;;;;;4916625;29;20504;-86
2021/06/15 01:57:12;;;;;;;11.40;6.78;;;14.00;41.90;;;;;;4899883;29;20024;-86
2021/06/15 01:59:42;;;;;;;11.45;7.03;;;13.90;42.00;;;;;;4899964;29;20036;-86
2021/06/15 02:02:09;;;;;;;11.68;6.80;;;14.00;42.90;;;;;;4899755;29;20024;-86
2021/06/15 02:04:41;;;;;;;13.90;7.60;;;13.90;42.30;;;;;;4899941;29;20111;-86
2021/06/15 02:07:09;;;;;;;13.85;7.95;;;13.90;42.60;;;;;;4916518;29;20040;-87
2021/06/15 02:09:40;;;;;;;13.35;8.48;;;13.90;42.60;;;;;;4916443;29;20044;-86
2021/06/15 02:12:06;;;;;;;12.80;7.70;;;13.80;42.70;;;;;;4912684;29;20524;-87
2021/06/15 02:14:34;;;;;;;12.82;7.57;;;13.80;42.60;;;;;;4915312;29;20036;-87
2021/06/15 02:17:00;;;;;;;14.50;8.27;;;13.70;42.80;;;;;;4916202;29;20028;-86
2021/06/15 02:19:28;;;;;;;13.35;8.13;;;13.80;43.00;;;;;;4916694;29;20095;-86
2021/06/15 02:22:15;;;;;;;13.88;8.55;;;13.70;43.20;;;;;;4916588;29;20024;-87
2021/06/15 02:24:45;;;;;;;13.50;7.90;;;13.70;43.30;;;;;;4913298;29;20036;-87
2021/06/15 02:27:13;;;;;;;13.55;8.40;;;13.70;43.40;;;;;;4912655;29;20020;-87
2021/06/15 02:29:40;;;;;;;14.52;8.48;;;13.70;43.40;;;;;;4915000;29;20060;-88
2021/06/15 02:32:09;;;;;;;14.95;8.27;;;13.60;43.50;;;;;;4917579;29;20067;-88
2021/06/15 02:34:37;;;;;;;13.25;7.30;;;13.60;43.60;;;;;;4903772;29;20028;-88
2021/06/15 02:37:07;;;;;;;14.05;7.78;;;13.50;43.70;;;;;;4920087;29;20055;-88
2021/06/15 02:39:35;;;;;;;12.35;7.13;;;13.50;43.80;;;;;;4915619;29;20039;-89
2021/06/15 02:42:07;;;;;;;13.32;7.20;;;13.40;43.90;;;;;;4919790;29;20031;-89
2021/06/15 02:44:38;;;;;;;13.20;7.60;;;13.40;43.90;;;;;;4919761;29;20030;-90
2021/06/15 02:47:05;;;;;;;13.57;7.72;;;13.40;44.80;;;;;;4898574;29;20085;-88
2021/06/15 02:49:36;;;;;;;13.63;8.10;;;13.30;44.20;;;;;;4919468;29;20501;-87
2021/06/15 02:52:09;;;;;;;14.68;8.40;;;13.40;44.40;;;;;;4919783;29;20024;-88
2021/06/15 02:54:41;;;;;;;12.32;8.25;;;13.30;44.50;;;;;;4919800;29;20028;-88
2021/06/15 02:57:07;;;;;;;15.15;8.75;;;13.30;44.50;;;;;;4919609;29;20024;-86
2021/06/15 02:59:36;;;;;;;14.15;7.85;;;13.20;45.10;;;;;;4919514;29;20441;-87
2021/06/15 03:02:01;;;;;;;14.10;7.90;;;13.30;44.60;;;;;;4920398;29;20036;-88
2021/06/15 03:04:27;;;;;;;14.10;7.68;;;13.20;44.60;;;;;;4920138;29;20432;-87
2021/06/15 03:06:53;;;;;;;14.23;7.70;;;13.20;44.80;;;;;;4902969;29;20024;-87
2021/06/15 03:09:19;;;;;;;12.05;7.00;;;13.20;44.90;;;;;;4919210;29;20036;-87
2021/06/15 03:12:01;;;;;;;13.05;7.85;;;13.10;44.90;;;;;;4919746;29;20024;-87
2021/06/15 03:14:30;;;;;;;14.98;7.47;;;13.10;45.20;;;;;;4919112;29;20103;-86
2021/06/15 03:17:05;;;;;;;12.52;7.18;;;13.00;45.10;;;;;;4919519;29;20023;-86
2021/06/15 03:19:50;;;;;;;12.48;6.70;;;13.00;45.40;;;;;;4919327;29;20036;-86
2021/06/15 03:22:22;;;;;;;12.85;7.65;;;12.90;45.30;;;;;;4915515;29;20024;-87
2021/06/15 03:24:53;;;;;;;12.98;7.15;;;13.00;45.40;;;;;;4902519;29;20063;-87
2021/06/15 03:27:31;;;;;;;13.10;7.20;;;13.00;45.50;;;;;;4902736;29;20040;-88
2021/06/15 03:30:04;;;;;;;12.18;7.15;;;12.90;45.70;;;;;;4919103;29;20028;-89
2021/06/15 03:32:30;;;;;;;13.60;6.68;;;12.80;45.60;;;;;;4918728;29;20024;-88
2021/06/15 03:34:57;;;;;;;13.73;7.28;;;12.90;45.70;;;;;;4902200;29;20119;-88
2021/06/15 03:37:28;;;;;;;12.80;6.90;;;12.80;45.90;;;;;;4919259;29;20341;-87
2021/06/15 03:39:58;;;;;;;13.95;7.38;;;12.90;46.70;;;;;;4916141;29;20038;-88
2021/06/15 03:42:30;;;;;;;17.33;7.50;;;12.90;46.30;;;;;;4918575;29;20380;-88
2021/06/15 03:45:03;;;;;;;14.02;7.70;;;12.90;46.30;;;;;;4928937;29;20473;-88
2021/06/15 03:47:31;;;;;;;12.80;7.97;;;12.90;46.50;;;;;;4917355;29;20028;-87
2021/06/15 03:49:57;;;;;;;14.95;8.13;;;12.90;46.30;;;;;;4902296;29;20060;-87
2021/06/15 03:52:28;;;;;;;14.98;7.97;;;12.90;47.00;;;;;;4883047;29;20036;-88
2021/06/15 03:54:56;;;;;;;13.30;7.85;;;12.90;46.70;;;;;;4883234;29;20541;-88
2021/06/15 03:57:26;;;;;;;16.92;9.10;;;12.90;46.70;;;;;;4900200;29;20036;-89
2021/06/15 03:59:55;;;;;;;14.20;8.10;;;12.90;46.90;;;;;;4898196;29;20032;-89
2021/06/15 04:02:29;;;;;;;16.25;9.05;;;13.00;47.00;;;;;;4900388;29;20032;-91
2021/06/15 04:04:56;;;;;;;17.85;9.38;;;13.00;47.20;;;;;;4879871;29;20024;-90
2021/06/15 04:07:23;;;;;;;18.95;10.15;;;13.00;47.20;;;;;;4867594;29;20396;-90
2021/06/15 04:09:51;;;;;;;18.70;9.68;;;13.00;48.00;;;;;;4914594;29;20059;-90
2021/06/15 04:12:19;;;;;;;16.52;9.52;;;13.00;47.40;;;;;;4867086;29;20167;-90
2021/06/15 04:14:47;;;;;;;21.58;9.73;;;13.10;47.60;;;;;;4891859;29;20020;-89
2021/06/15 04:17:29;;;;;;;19.10;9.88;;;13.00;47.60;;;;;;4899689;29;20526;-88
2021/06/15 04:19:57;;;;;;;23.15;10.50;;;13.10;47.80;;;;;;4899534;29;20112;-89
2021/06/15 04:22:28;;;;;;;21.30;9.77;;;13.20;47.80;;;;;;4882288;29;20035;-90
2021/06/15 04:24:55;;;;;;;16.60;8.88;;;13.20;48.10;;;;;;4883192;29;20043;-90
2021/06/15 04:27:25;;;;;;;18.92;10.63;;;13.20;48.10;;;;;;4883396;29;20040;-90
2021/06/15 04:29:55;;;;;;;16.85;9.63;;;13.20;48.20;;;;;;4882998;29;20017;-90
2021/06/15 04:32:55;;;;;;;14.30;8.82;;;13.30;48.50;;;;;;4895907;29;20477;-90
2021/06/15 04:35:41;;;;;;;14.88;8.93;;;13.30;48.60;;;;;;4897251;29;20029;-88
2021/06/15 04:38:15;;;;;;;16.15;8.75;;;13.40;48.60;;;;;;4896511;29;20064;-88
2021/06/15 04:40:47;;;;;;;14.90;9.55;;;13.40;48.70;;;;;;4899067;29;20020;-88
2021/06/15 04:43:13;;;;;;;18.27;10.65;;;13.50;48.90;;;;;;4898970;29;20033;-88
2021/06/15 04:45:42;;;;;;;20.13;12.43;;;13.50;48.90;;;;;;4882393;29;20358;-88
2021/06/15 04:48:12;;;;;;;16.90;9.75;;;13.50;49.10;;;;;;4899280;29;20385;-89
2021/06/15 04:50:37;;;;;;;17.63;9.82;;;13.60;49.30;;;;;;4917889;29;20548;-88
2021/06/15 04:53:06;;;;;;;15.73;10.45;;;13.70;49.50;;;;;;4917697;29;20032;-88
2021/06/15 04:55:35;;;;;;;17.10;9.10;;;13.80;49.60;;;;;;4900333;29;20031;-88
2021/06/15 04:58:03;;;;;;;16.88;10.73;;;13.90;49.70;;;;;;4914242;29;20366;-88
2021/06/15 05:00:29;;;;;;;15.40;10.32;;;13.90;49.70;;;;;;4900853;29;20088;-90
2021/06/15 05:02:56;;;;;;;15.30;9.65;;;13.90;49.70;;;;;;4886905;29;20106;-90
2021/06/15 05:05:23;;;;;;;15.65;9.65;;;14.00;49.80;;;;;;4917597;29;20142;-90
2021/06/15 05:08:01;;;;;;;15.32;9.65;;;14.00;50.00;;;;;;4900607;29;20032;-89
2021/06/15 05:10:29;;;;;;;12.85;8.93;;;14.00;50.10;;;;;;4916299;29;20043;-86
2021/06/15 05:12:55;;;;;;;14.88;9.52;;;14.20;50.30;;;;;;4917358;29;20024;-86
2021/06/15 05:15:26;;;;;;;14.75;8.63;;;14.30;50.30;;;;;;4917486;29;20481;-83
2021/06/15 05:17:54;;;;;;;14.30;8.30;;;14.40;50.70;;;;;;4913357;29;20137;-81
2021/06/15 05:20:20;;;;;;;12.02;8.00;;;14.50;50.80;;;;;;4915132;29;20180;-81
2021/06/15 05:22:51;;;;;;;10.73;7.05;;;14.60;50.80;;;;;;4917422;29;20032;-81
2021/06/15 05:25:18;;;;;;;14.00;7.25;;;14.70;50.80;;;;;;4917168;29;20027;-81
2021/06/15 05:27:43;;;;;;;16.02;7.40;;;14.80;50.90;;;;;;4917138;29;20032;-81
2021/06/15 05:30:11;;;;;;;19.40;7.90;;;14.90;50.90;;;;;;4913435;29;20157;-81
2021/06/15 05:32:37;;;;;;;11.10;6.68;;;14.90;51.10;;;;;;4917110;29;20508;-81
2021/06/15 05:35:03;;;;;;;10.90;6.50;;;15.00;51.10;;;;;;4917321;29;20115;-81
2021/06/15 05:37:28;;;;;;;11.38;6.57;;;15.10;51.10;;;;;;4917318;29;20396;-81
2021/06/15 05:39:56;;;;;;;12.23;6.45;;;15.20;51.20;;;;;;4916959;29;20046;-81
2021/06/15 05:42:23;;;;;;;15.18;6.38;;;15.30;51.30;;;;;;4917196;29;20027;-83
2021/06/15 05:44:48;;;;;;;13.90;6.38;;;15.40;51.30;;;;;;4916936;29;20020;-83
2021/06/15 05:47:14;;;;;;;14.02;6.40;;;15.40;51.10;;;;;;4917392;29;20039;-83
2021/06/15 05:49:40;;;;;;;12.60;5.60;;;15.50;51.20;;;;;;4917351;29;20044;-83
2021/06/15 05:52:08;;;;;;;14.45;6.40;;;15.50;51.20;;;;;;4916026;29;20492;-83
2021/06/15 05:54:34;;;;;;;10.35;6.13;;;15.60;51.30;;;;;;4916926;29;20031;-82
2021/06/15 05:57:00;;;;;;;11.20;5.70;;;15.70;51.30;;;;;;4917080;29;20051;-82
2021/06/15 05:59:26;;;;;;;10.50;5.70;;;15.80;51.60;;;;;;4916706;29;20079;-83
2021/06/15 06:01:52;;;;;;;11.77;5.97;;;15.90;51.60;;;;;;4916716;29;20083;-83
2021/06/15 06:04:22;;;;;;;10.68;5.78;;;16.00;51.80;;;;;;4916334;29;20019;-84
2021/06/15 06:09:36;;;;;;;10.85;5.82;;;16.20;51.90;;;;;;4915001;29;20496;-84
2021/06/15 06:12:01;;;;;;;10.43;5.22;;;16.40;51.90;;;;;;4915168;29;20032;-84
2021/06/15 06:14:27;;;;;;;11.23;5.72;;;16.40;51.70;;;;;;4916679;29;20485;-83
2021/06/15 06:16:53;;;;;;;9.80;4.50;;;16.40;51.70;;;;;;4917034;29;20031;-82
2021/06/15 06:19:18;;;;;;;9.60;5.10;;;16.50;51.80;;;;;;4916341;29;20036;-83
2021/06/15 06:21:45;;;;;;;9.02;4.90;;;16.60;52.00;;;;;;4899402;29;20080;-83
2021/06/15 06:24:11;;;;;;;9.35;4.55;;;16.70;51.90;;;;;;4916964;29;20039;-82
2021/06/15 06:26:37;;;;;;;9.02;4.35;;;16.70;51.90;;;;;;4916810;29;20032;-82
2021/06/15 06:29:03;;;;;;;10.43;4.38;;;16.80;52.10;;;;;;4916608;29;20055;-82
2021/06/15 06:31:29;;;;;;;9.18;4.03;;;17.00;52.40;;;;;;4916386;29;20125;-82
2021/06/15 06:33:54;;;;;;;9.50;4.10;;;17.10;52.20;;;;;;4916518;29;20031;-82
2021/06/15 06:36:20;;;;;;;8.68;4.05;;;17.20;52.30;;;;;;4916577;29;20044;-82
2021/06/15 06:38:49;;;;;;;13.40;3.90;;;17.30;52.50;;;;;;4916828;29;20028;-83
2021/06/15 06:41:21;;;;;;;8.77;3.80;;;17.50;52.60;;;;;;4916744;29;20020;-83
2021/06/15 06:43:47;;;;;;;9.88;3.90;;;17.60;52.40;;;;;;4914678;29;20028;-83
2021/06/15 06:46:13;;;;;;;9.60;3.45;;;17.70;52.40;;;;;;4916467;29;20031;-82
2021/06/15 06:48:38;;;;;;;8.02;3.50;;;17.80;52.20;;;;;;4916273;29;20389;-82
2021/06/15 06:51:04;;;;;;;9.48;3.80;;;17.90;52.40;;;;;;4899326;29;20144;-83
2021/06/15 06:53:32;;;;;;;7.00;3.10;;;18.00;52.50;;;;;;4916565;29;20030;-82
2021/06/15 06:55:58;;;;;;;9.20;3.80;;;18.20;52.50;;;;;;4916338;29;20024;-82
2021/06/15 06:58:24;;;;;;;7.10;3.13;;;18.30;52.30;;;;;;4915026;29;20033;-83
2021/06/15 07:00:50;;;;;;;14.02;4.00;;;18.40;52.20;;;;;;4916167;29;20496;-82
2021/06/15 07:03:15;;;;;;;8.77;3.40;;;18.50;52.20;;;;;;4916622;29;20028;-83
2021/06/15 07:05:41;;;;;;;8.13;3.10;;;18.60;52.10;;;;;;4899301;29;20024;-83
2021/06/15 07:08:07;;;;;;;8.25;3.25;;;18.60;52.00;;;;;;4916247;29;20036;-84
2021/06/15 07:10:32;;;;;;;7.07;3.40;;;18.70;52.00;;;;;;4915979;29;20060;-84
2021/06/15 07:12:58;;;;;;;8.95;3.50;;;18.90;52.30;;;;;;4914856;29;20054;-83
2021/06/15 07:15:24;;;;;;;10.85;3.70;;;19.10;52.40;;;;;;4916204;29;20028;-83
2021/06/15 07:17:49;;;;;;;8.75;3.90;;;19.10;52.50;;;;;;4916544;29;20084;-83
2021/06/15 07:20:15;;;;;;;8.07;3.70;;;19.30;52.50;;;;;;4919569;29;20464;-83
2021/06/15 07:22:41;;;;;;;7.32;3.38;;;19.40;52.30;;;;;;4919517;29;20035;-85
2021/06/15 07:25:07;;;;;;;8.95;3.25;;;19.50;52.20;;;;;;4918656;29;20032;-83
2021/06/15 07:27:33;;;;;;;9.13;3.72;;;19.60;52.10;;;;;;4919302;29;20048;-83
2021/06/15 07:29:59;;;;;;;9.73;3.63;;;19.70;52.10;;;;;;4902385;29;20152;-83
2021/06/15 07:32:24;;;;;;;8.82;3.85;;;19.80;52.10;;;;;;4917874;29;20160;-83
2021/06/15 07:34:50;;;;;;;6.93;3.13;;;20.00;52.40;;;;;;4919357;29;20021;-83
2021/06/15 07:37:16;;;;;;;9.32;3.35;;;20.10;52.50;;;;;;4919242;29;20052;-83
2021/06/15 07:39:42;;;;;;;6.18;2.75;;;20.30;52.40;;;;;;4919138;29;20412;-83
2021/06/15 07:42:08;;;;;;;10.15;3.72;;;20.40;52.20;;;;;;4919127;29;20028;-82
2021/06/15 07:44:34;;;;;;;7.65;3.50;;;20.50;52.10;;;;;;4918508;29;20024;-84
2021/06/15 07:47:00;;;;;;;9.35;3.38;;;20.60;52.00;;;;;;4919088;29;20107;-87
2021/06/15 07:49:25;;;;;;;7.10;3.22;;;20.70;52.00;;;;;;4901631;29;20044;-87
2021/06/15 07:51:51;;;;;;;6.18;2.97;;;20.80;51.90;;;;;;4918660;29;20035;-87
2021/06/15 07:54:17;;;;;;;7.70;3.25;;;20.90;52.10;;;;;;4919022;29;20441;-87
2021/06/15 07:56:42;;;;;;;6.63;3.33;;;21.00;52.10;;;;;;4917694;29;20032;-87
2021/06/15 07:59:08;;;;;;;8.40;3.40;;;21.10;52.30;;;;;;4917735;29;20166;-84
2021/06/15 08:01:34;;;;;;;7.60;3.33;;;21.30;52.40;;;;;;4918358;29;20099;-83
2021/06/15 08:03:59;;;;;;;9.20;3.00;;;21.40;52.10;;;;;;4917492;29;20072;-84
2021/06/15 08:06:25;;;;;;;6.32;2.72;;;21.50;52.10;;;;;;4901895;29;20449;-83
2021/06/15 08:08:51;;;;;;;6.75;2.75;;;21.60;52.00;;;;;;4918010;29;20028;-83
2021/06/15 08:11:16;;;;;;;6.55;2.67;;;21.80;52.00;;;;;;4901874;29;20032;-83
2021/06/15 08:13:42;;;;;;;6.13;2.70;;;21.90;52.00;;;;;;4918010;29;20043;-83
2021/06/15 08:16:08;;;;;;;7.32;2.90;;;22.00;52.00;;;;;;4914549;29;20024;-83
2021/06/15 08:18:34;;;;;;;5.03;2.50;;;22.10;51.70;;;;;;4916937;29;20088;-83
2021/06/15 08:21:00;;;;;;;6.38;2.40;;;22.30;51.90;;;;;;4917991;29;20028;-83
2021/06/15 08:23:26;;;;;;;6.63;2.55;;;22.40;52.00;;;;;;4917982;29;20034;-83
2021/06/15 08:25:52;;;;;;;7.60;2.53;;;22.60;51.60;;;;;;4917719;29;20049;-83
2021/06/15 08:28:19;;;;;;;5.47;2.50;;;22.70;51.10;;;;;;4917915;29;20021;-83
2021/06/15 08:30:44;;;;;;;5.75;2.28;;;22.70;51.00;;;;;;4901369;29;20404;-83
2021/06/15 08:33:11;;;;;;;8.52;2.97;;;22.80;50.90;;;;;;4917551;29;20020;-83
2021/06/15 08:35:37;;;;;;;8.45;2.85;;;22.90;51.00;;;;;;4914164;29;20051;-83
2021/06/15 08:38:03;;;;;;;6.88;2.78;;;22.90;50.90;;;;;;4914522;29;20067;-84
2021/06/15 08:40:30;;;;;;;5.88;2.65;;;23.10;50.90;;;;;;4916764;29;20028;-84
2021/06/15 08:42:56;;;;;;;6.97;2.60;;;23.20;50.90;;;;;;4917935;29;20104;-85
2021/06/15 08:45:22;;;;;;;5.25;2.40;;;23.30;50.70;;;;;;4917511;29;20020;-84
2021/06/15 08:47:50;;;;;;;6.95;2.50;;;23.40;50.60;;;;;;4917206;29;20020;-83
2021/06/15 08:50:24;;;;;;;5.57;2.30;;;23.60;50.40;;;;;;4916981;29;20044;-84
2021/06/15 08:52:52;;;;;;;4.90;2.40;;;23.70;50.10;;;;;;4932612;29;20482;-84
2021/06/15 08:55:19;;;;;;;8.32;2.80;;;23.80;50.20;;;;;;4917309;29;20051;-83
2021/06/15 08:58:23;;;;;;;5.57;2.70;;;24.00;50.20;;;;;;4917251;29;20100;-84
2021/06/15 09:00:49;;;;;;;5.03;2.40;;;24.10;50.20;;;;;;4897937;29;20028;-84
2021/06/15 09:03:15;;;;;;;6.18;2.70;;;24.30;50.10;;;;;;4916354;29;20028;-84
2021/06/15 09:05:41;;;;;;;5.28;2.67;;;24.40;49.80;;;;;;4900533;29;20028;-84
2021/06/15 09:08:10;;;;;;;5.38;2.60;;;24.60;49.60;;;;;;4916836;29;20087;-84
2021/06/15 09:10:45;;;;;;;6.18;2.50;;;24.80;49.60;;;;;;4916270;29;20083;-84
2021/06/15 09:13:40;;;;;;;6.55;2.50;;;24.90;49.40;;;;;;4914984;29;20021;-83
2021/06/15 09:16:35;;;;;;;5.68;2.50;;;25.10;49.50;;;;;;4881031;29;20044;-83
2021/06/15 09:19:13;;;;;;;5.97;2.50;;;25.30;49.30;;;;;;4915950;29;20039;-84
2021/06/15 09:21:40;;;;;;;6.00;2.67;;;25.50;49.20;;;;;;4898181;29;20024;-84
2021/06/15 09:24:24;;;;;;;4.55;2.30;;;25.60;49.30;;;;;;4916987;29;20028;-85
2021/06/15 09:27:08;;;;;;;4.80;2.50;;;25.90;49.20;;;;;;4913756;29;20092;-84
2021/06/15 09:29:53;;;;;;;7.75;2.67;;;26.10;49.10;;;;;;4912927;29;20039;-84
2021/06/15 09:32:23;;;;;;;6.38;2.70;;;26.30;49.30;;;;;;4915923;29;20020;-84
2021/06/15 09:35:02;;;;;;;6.25;2.67;;;26.60;49.20;;;;;;4916410;29;20020;-86
2021/06/15 09:37:42;;;;;;;6.22;2.70;;;26.90;49.00;;;;;;4916475;29;20020;-84
2021/06/15 09:40:17;;;;;;;7.10;2.75;;;27.10;48.80;;;;;;4913187;29;20448;-84
2021/06/15 09:43:00;;;;;;;6.00;2.40;;;27.20;48.70;;;;;;4916216;29;20044;-85
2021/06/15 09:45:39;;;;;;;5.75;2.75;;;27.50;48.50;;;;;;4914560;29;20053;-85
2021/06/15 09:48:24;;;;;;;5.07;2.50;;;27.70;48.30;;;;;;4916189;29;20586;-87
2021/06/15 09:50:54;;;;;;;5.72;2.50;;;27.90;48.40;;;;;;4916506;29;20028;-85
2021/06/15 09:53:24;;;;;;;8.18;3.38;;;28.10;48.70;;;;;;4900663;29;20051;-85
2021/06/15 09:55:51;;;;;;;6.65;2.67;;;28.30;47.90;;;;;;4916480;29;20028;-84
2021/06/15 09:58:17;;;;;;;8.32;2.50;;;28.50;47.30;;;;;;4916263;29;20560;-85
2021/06/15 10:00:52;;;;;;;6.90;2.70;;;28.50;47.20;;;;;;4899895;29;20115;-84
2021/06/15 10:03:17;;;;;;;5.97;2.78;;;28.50;47.10;;;;;;4916127;29;20020;-84
2021/06/15 10:05:43;;;;;;;4.15;1.98;;;28.70;47.30;;;;;;4899846;29;20023;-84
2021/06/15 10:08:11;;;;;;;3.90;2.25;;;28.80;47.00;;;;;;4899767;29;20035;-84
2021/06/15 10:10:39;;;;;;;4.63;2.20;;;28.80;46.20;;;;;;4916499;29;20024;-84
2021/06/15 10:13:06;;;;;;;4.70;2.40;;;28.90;46.40;;;;;;4916550;29;20066;-84
2021/06/15 10:15:32;;;;;;;6.38;2.60;;;29.00;46.60;;;;;;4916199;29;20020;-84
2021/06/15 10:17:59;;;;;;;6.28;2.70;;;29.20;46.50;;;;;;4915941;29;20044;-84
2021/06/15 10:20:30;;;;;;;5.40;2.70;;;29.50;46.70;;;;;;4916007;29;20065;-84
2021/06/15 10:22:57;;;;;;;7.65;3.00;;;29.90;46.70;;;;;;4916318;29;20025;-84
2021/06/15 10:25:25;;;;;;;6.28;2.70;;;30.20;46.30;;;;;;4916537;29;20028;-84
2021/06/15 10:27:51;;;;;;;5.53;2.30;;;30.40;45.90;;;;;;4916058;29;20097;-84
2021/06/15 10:30:26;;;;;;;4.45;2.30;;;30.70;45.20;;;;;;4916213;29;20489;-84
2021/06/15 10:33:22;;;;;;;5.50;2.30;;;30.80;45.00;;;;;;4916095;29;20605;-84
2021/06/15 10:35:57;;;;;;;5.88;2.38;;;30.80;44.40;;;;;;4914901;29;20445;-84
2021/06/15 10:38:28;;;;;;;5.28;2.45;;;30.90;44.80;;;;;;4916176;29;20401;-84
2021/06/15 10:41:03;;;;;;;4.50;2.20;;;31.10;44.80;;;;;;4916360;29;20024;-84
2021/06/15 10:43:28;;;;;;;4.63;2.20;;;31.20;44.40;;;;;;4915672;29;20079;-84
2021/06/15 10:45:59;;;;;;;6.75;2.47;;;31.20;44.10;;;;;;4899623;29;20024;-88
2021/06/15 10:48:28;;;;;;;5.43;2.20;;;31.30;43.70;;;;;;4913012;29;20058;-87
2021/06/15 10:50:56;;;;;;;5.78;2.42;;;31.20;43.20;;;;;;4915958;29;20058;-85
2021/06/15 10:53:42;;;;;;;7.38;2.60;;;31.10;43.10;;;;;;4899843;29;20028;-85
2021/06/15 10:56:11;;;;;;;5.07;2.10;;;31.10;43.70;;;;;;4918559;29;20040;-88
2021/06/15 10:58:43;;;;;;;5.95;2.50;;;31.30;43.90;;;;;;4920288;29;20088;-86
2021/06/15 11:01:18;;;;;;;10.57;2.70;;;31.50;43.80;;;;;;4916891;29;20020;-84
2021/06/15 11:03:53;;;;;;;6.15;2.40;;;31.70;43.40;;;;;;4919364;29;20496;-85
2021/06/15 11:06:26;;;;;;;4.90;2.40;;;31.80;43.20;;;;;;4902928;29;20390;-85
2021/06/15 11:09:23;;;;;;;8.43;2.67;;;32.00;43.10;;;;;;4919772;29;20052;-85
2021/06/15 11:12:09;;;;;;;6.00;1.98;;;32.20;43.70;;;;;;4933525;29;20029;-86
2021/06/15 11:14:37;;;;;;;5.57;2.35;;;32.50;43.20;;;;;;4917847;29;20064;-88
2021/06/15 11:17:07;;;;;;;4.85;2.33;;;32.70;43.20;;;;;;4902957;29;20047;-88
2021/06/15 11:19:37;;;;;;;4.50;2.30;;;33.00;43.90;;;;;;4915556;29;20484;-88
2021/06/15 11:22:10;;;;;;;5.75;2.60;;;33.70;45.10;;;;;;4919243;29;20035;-88
2021/06/15 11:24:45;;;;;;;8.93;2.60;;;34.30;44.50;;;;;;4919183;29;20017;-86
2021/06/15 11:27:11;;;;;;;7.13;2.40;;;34.80;44.20;;;;;;4917497;29;20016;-87
2021/06/15 11:29:39;;;;;;;5.78;2.33;;;35.40;44.30;;;;;;4902256;29;20079;-91
2021/06/15 11:32:25;;;;;;;3.58;2.20;;;36.20;44.50;;;;;;4919327;29;20031;-89
2021/06/15 11:34:54;;;;;;;4.50;2.15;;;36.90;44.70;;;;;;4918098;29;20024;-87
2021/06/15 11:37:20;;;;;;;4.55;2.22;;;37.60;43.50;;;;;;4902329;29;20031;-89
2021/06/15 11:39:46;;;;;;;5.85;2.10;;;37.80;41.30;;;;;;4918661;29;20397;-87
2021/06/15 11:42:21;;;;;;;5.68;2.10;;;38.10;42.20;;;;;;4902318;29;20020;-88
2021/06/15 11:45:02;;;;;;;4.25;2.10;;;38.50;40.60;;;;;;4918659;29;20386;-89
2021/06/15 11:47:55;;;;;;;8.70;5.93;;;38.00;39.30;;;;;;4914724;29;20031;-89
2021/06/15 11:50:40;;;;;;;5.53;2.20;;;38.50;41.90;;;;;;4917932;29;20409;-88
2021/06/15 11:53:08;;;;;;;4.40;2.03;;;39.30;41.10;;;;;;4914519;29;20013;-88
2021/06/15 11:55:44;;;;;;;4.70;2.10;;;39.60;40.20;;;;;;4918087;29;20020;-88
2021/06/15 11:58:16;;;;;;;5.55;2.10;;;39.70;39.70;;;;;;4918560;29;20067;-88
2021/06/15 12:00:47;;;;;;;4.35;2.10;;;39.90;39.40;;;;;;4915387;29;20059;-87
2021/06/15 12:03:17;;;;;;;4.15;2.00;;;40.20;39.70;;;;;;4917508;29;20028;-87
2021/06/15 12:06:02;;;;;;;7.63;2.38;;;40.40;38.80;;;;;;4902351;29;20028;-90
2021/06/15 12:08:43;;;;;;;4.97;2.17;;;40.30;37.10;;;;;;4915795;29;20020;-88
2021/06/15 12:11:14;;;;;;;4.47;2.10;;;41.00;38.40;;;;;;4914837;29;20107;-88
2021/06/15 12:13:40;;;;;;;5.70;2.20;;;41.50;36.20;;;;;;4918531;29;20027;-88
2021/06/15 12:16:13;;;;;;;4.43;2.20;;;41.60;35.50;;;;;;4902009;29;20036;-87
2021/06/15 12:18:45;;;;;;;3.40;2.05;;;42.00;36.20;;;;;;4918335;29;20148;-88
2021/06/15 12:21:22;;;;;;;3.55;2.15;;;42.70;36.80;;;;;;4917324;29;20396;-88
2021/06/15 12:23:50;;;;;;;4.75;2.20;;;43.70;38.20;;;;;;4917654;29;20600;-89
2021/06/15 12:26:32;;;;;;;6.50;2.45;;;44.70;37.40;;;;;;4917325;29;20051;-88
2021/06/15 12:29:01;;;;;;;4.78;2.28;;;45.30;37.90;;;;;;4913701;29;20031;-88
2021/06/15 12:31:30;;;;;;;4.40;2.40;;;46.00;37.40;;;;;;4901038;29;20038;-88
2021/06/15 12:34:03;;;;;;;4.82;2.35;;;46.50;37.40;;;;;;4918101;29;20042;-88
2021/06/15 12:36:32;;;;;;;5.40;2.22;;;47.30;36.60;;;;;;4917910;29;20028;-89
2021/06/15 12:39:17;;;;;;;3.67;2.35;;;47.70;35.00;;;;;;4901127;29;20068;-90
2021/06/15 12:41:51;;;;;;;4.43;2.50;;;48.10;34.80;;;;;;4917488;29;20547;-89
2021/06/15 12:44:18;;;;;;;2.60;2.30;;;48.50;34.40;;;;;;4917813;29;20036;-90
2021/06/15 12:46:45;;;;;;;5.25;2.58;;;48.90;33.90;;;;;;4901133;29;20492;-88
2021/06/15 12:49:21;;;;;;;6.03;2.80;;;49.70;33.90;;;;;;4916628;29;20056;-90
2021/06/15 12:51:50;;;;;;;6.43;2.90;;;50.30;32.40;;;;;;4914274;29;20274;-88
2021/06/15 12:54:22;;;;;;;5.50;2.80;;;50.70;32.00;;;;;;4918703;29;20031;-87
2021/06/15 12:56:56;;;;;;;4.05;2.50;;;51.00;29.90;;;;;;4918486;29;20023;-88
2021/06/15 12:59:22;;;;;;;4.65;2.90;;;50.80;29.10;;;;;;4901039;29;20437;-88